createdAt,value
2019-02-16T00:01:21.193Z,8.40
2019-02-16T00:03:50.326Z,8.50
2019-02-16T00:06:19.590Z,8.50
2019-02-16T00:08:48.728Z,8.60
2019-02-16T00:11:18.027Z,8.60
2019-02-16T00:13:47.113Z,8.50
2019-02-16T00:16:17.332Z,8.60
2019-02-16T00:18:46.444Z,8.60
2019-02-16T00:21:15.813Z,8.60
2019-02-16T00:23:44.872Z,8.60
2019-02-16T00:26:14.143Z,8.60
2019-02-16T00:28:43.351Z,8.60
2019-02-16T00:31:12.515Z,8.60
2019-02-16T00:33:41.708Z,8.60
2019-02-16T00:36:11.861Z,8.60
2019-02-16T00:38:41.282Z,8.60
2019-02-16T00:41:10.352Z,8.60
2019-02-16T00:43:39.392Z,8.60
2019-02-16T00:46:40.432Z,8.60
2019-02-16T00:49:46.812Z,8.50
2019-02-16T00:53:00.801Z,8.50
2019-02-16T00:55:30.000Z,8.50
2019-02-16T00:57:59.312Z,8.50
2019-02-16T01:00:29.454Z,8.50
2019-02-16T01:02:58.549Z,8.50
2019-02-16T01:05:27.981Z,8.50
2019-02-16T01:07:57.158Z,8.50
2019-02-16T01:10:26.585Z,8.50
2019-02-16T01:12:56.046Z,8.50
2019-02-16T01:15:25.114Z,8.50
2019-02-16T01:17:54.511Z,8.40
2019-02-16T01:20:23.806Z,8.40
2019-02-16T01:22:53.929Z,8.40
2019-02-16T01:25:23.234Z,8.40
2019-02-16T01:27:53.874Z,8.40
2019-02-16T01:30:29.547Z,8.40
2019-02-16T01:32:58.941Z,8.40
2019-02-16T01:35:28.175Z,8.30
2019-02-16T01:37:58.216Z,8.30
2019-02-16T01:40:27.387Z,8.20
2019-02-16T01:42:56.565Z,8.30
2019-02-16T01:45:25.753Z,8.30
2019-02-16T01:47:56.010Z,8.30
2019-02-16T01:50:25.277Z,8.30
2019-02-16T01:52:54.634Z,8.30
2019-02-16T01:55:24.094Z,8.30
2019-02-16T01:57:53.939Z,8.30
2019-02-16T02:00:23.131Z,8.30
2019-02-16T02:02:52.335Z,8.30
2019-02-16T02:05:21.615Z,8.20
2019-02-16T02:07:50.839Z,8.20
2019-02-16T02:10:20.091Z,8.20
2019-02-16T02:12:49.230Z,8.10
2019-02-16T02:15:18.527Z,8.00
2019-02-16T02:17:47.767Z,8.00
2019-02-16T02:20:17.153Z,8.10
2019-02-16T02:22:46.246Z,8.00
2019-02-16T02:25:15.956Z,8.00
2019-02-16T02:27:45.183Z,8.00
2019-02-16T02:30:14.851Z,8.10
2019-02-16T02:32:44.048Z,8.00
2019-02-16T02:35:13.294Z,8.00
2019-02-16T02:37:42.799Z,8.00
2019-02-16T02:40:12.091Z,8.00
2019-02-16T02:42:41.414Z,8.00
2019-02-16T02:45:10.950Z,7.90
2019-02-16T02:47:40.176Z,7.90
2019-02-16T02:50:09.411Z,7.90
2019-02-16T02:52:38.955Z,7.90
2019-02-16T02:55:08.200Z,7.90
2019-02-16T02:57:38.308Z,7.90
2019-02-16T03:00:07.999Z,7.80
2019-02-16T03:02:37.275Z,7.90
2019-02-16T03:05:07.681Z,7.90
2019-02-16T03:07:36.960Z,7.80
2019-02-16T03:10:06.496Z,7.80
2019-02-16T03:12:35.724Z,7.80
2019-02-16T03:15:05.377Z,7.80
2019-02-16T03:17:34.568Z,7.70
2019-02-16T03:20:03.932Z,7.60
2019-02-16T03:23:11.805Z,7.60
2019-02-16T03:25:41.881Z,7.60
2019-02-16T03:28:31.208Z,7.50
2019-02-16T03:32:11.951Z,7.50
2019-02-16T03:34:47.074Z,7.50
2019-02-16T03:37:43.220Z,7.50
2019-02-16T03:40:12.744Z,7.50
2019-02-16T03:42:42.101Z,7.50
2019-02-16T03:45:11.355Z,7.50
2019-02-16T03:47:40.535Z,7.50
2019-02-16T03:50:09.947Z,7.50
2019-02-16T03:52:39.257Z,7.40
2019-02-16T03:55:08.631Z,7.50
2019-02-16T03:57:37.892Z,7.50
2019-02-16T04:00:07.987Z,7.50
2019-02-16T04:02:37.227Z,7.60
2019-02-16T04:05:06.769Z,7.60
2019-02-16T04:07:36.155Z,7.60
2019-02-16T04:10:05.776Z,7.60
2019-02-16T04:12:35.000Z,7.60
2019-02-16T04:15:05.150Z,7.60
2019-02-16T04:17:34.405Z,7.60
2019-02-16T04:20:03.737Z,7.60
2019-02-16T04:22:32.981Z,7.60
2019-02-16T04:25:02.178Z,7.60
2019-02-16T04:27:31.602Z,7.60
2019-02-16T04:30:04.274Z,7.60
2019-02-16T04:32:33.425Z,7.60
2019-02-16T04:35:02.632Z,7.50
2019-02-16T04:37:31.856Z,7.50
2019-02-16T04:40:00.988Z,7.50
2019-02-16T04:42:30.214Z,7.50
2019-02-16T04:44:59.494Z,7.50
2019-02-16T04:47:28.579Z,7.40
2019-02-16T04:49:57.741Z,7.40
2019-02-16T04:52:34.241Z,7.50
2019-02-16T04:54:57.551Z,7.40
2019-02-16T04:57:26.823Z,7.40
2019-02-16T04:59:55.943Z,7.40
2019-02-16T05:02:25.093Z,7.40
2019-02-16T05:04:54.333Z,7.40
2019-02-16T05:07:24.087Z,7.30
2019-02-16T05:09:53.187Z,7.30
2019-02-16T05:12:22.351Z,7.30
2019-02-16T05:14:51.627Z,7.30
2019-02-16T05:17:20.750Z,7.30
2019-02-16T05:19:50.382Z,7.20
2019-02-16T05:22:19.471Z,7.20
2019-02-16T05:24:55.713Z,7.20
2019-02-16T05:27:25.095Z,7.20
2019-02-16T05:29:54.135Z,7.20
2019-02-16T05:32:23.268Z,7.20
2019-02-16T05:34:52.326Z,7.10
2019-02-16T05:37:21.407Z,7.20
2019-02-16T05:39:50.661Z,7.20
2019-02-16T05:42:19.733Z,7.20
2019-02-16T05:44:49.220Z,7.20
2019-02-16T05:47:18.624Z,7.20
2019-02-16T05:49:47.673Z,7.20
2019-02-16T05:52:16.991Z,7.20
2019-02-16T05:54:46.058Z,7.20
2019-02-16T05:57:15.296Z,7.10
2019-02-16T05:59:44.363Z,7.10
2019-02-16T06:02:13.504Z,7.10
2019-02-16T06:04:42.787Z,7.10
2019-02-16T06:07:12.193Z,7.00
2019-02-16T06:09:41.339Z,7.00
2019-02-16T06:12:10.530Z,7.10
2019-02-16T06:14:44.210Z,7.10
2019-02-16T06:17:13.415Z,7.00
2019-02-16T06:19:47.067Z,7.00
2019-02-16T06:22:16.075Z,7.00
2019-02-16T06:24:48.294Z,7.00
2019-02-16T06:27:17.338Z,6.90
2019-02-16T06:29:46.494Z,7.00
2019-02-16T06:32:17.279Z,7.00
2019-02-16T06:34:46.539Z,7.00
2019-02-16T06:37:26.640Z,7.00
2019-02-16T06:39:55.701Z,6.90
2019-02-16T06:42:25.177Z,6.90
2019-02-16T06:44:54.712Z,6.90
2019-02-16T06:47:24.507Z,6.90
2019-02-16T06:49:53.711Z,6.90
2019-02-16T06:52:25.630Z,6.90
2019-02-16T06:54:54.669Z,6.90
2019-02-16T06:57:26.914Z,6.80
2019-02-16T07:00:01.616Z,6.80
2019-02-16T07:02:30.942Z,6.80
2019-02-16T07:05:08.583Z,6.80
2019-02-16T07:07:37.964Z,6.80
2019-02-16T07:10:10.276Z,6.80
2019-02-16T07:12:42.230Z,6.80
2019-02-16T07:15:12.478Z,6.80
2019-02-16T07:17:47.142Z,6.80
2019-02-16T07:20:20.112Z,6.80
2019-02-16T07:22:49.538Z,6.80
2019-02-16T07:25:20.009Z,6.80
2019-02-16T07:27:52.003Z,6.80
2019-02-16T07:30:32.868Z,6.70
2019-02-16T07:32:59.867Z,6.80
2019-02-16T07:35:28.810Z,6.80
2019-02-16T07:38:01.135Z,6.70
2019-02-16T07:40:31.733Z,6.70
2019-02-16T07:43:07.607Z,6.70
2019-02-16T07:46:02.659Z,6.70
2019-02-16T07:48:55.337Z,6.70
2019-02-16T07:55:14.193Z,6.70
2019-02-16T07:57:50.092Z,6.70
2019-02-16T08:00:40.162Z,6.70
2019-02-16T08:03:43.691Z,6.80
2019-02-16T08:06:30.367Z,6.70
2019-02-16T08:09:18.734Z,6.80
2019-02-16T08:11:58.709Z,6.80
2019-02-16T08:14:33.933Z,6.80
2019-02-16T08:17:28.236Z,6.90
2019-02-16T08:20:05.741Z,6.80
2019-02-16T08:22:59.808Z,6.80
2019-02-16T08:25:48.024Z,6.90
2019-02-16T08:28:22.251Z,6.90
2019-02-16T08:31:03.403Z,6.90
2019-02-16T08:33:54.926Z,6.90
2019-02-16T08:36:58.556Z,7.10
2019-02-16T08:39:45.448Z,7.10
2019-02-16T08:42:38.586Z,7.20
2019-02-16T08:46:21.404Z,7.40
2019-02-16T08:49:13.999Z,7.40
2019-02-16T08:51:52.272Z,7.40
2019-02-16T08:54:39.139Z,7.40
2019-02-16T08:57:36.235Z,7.50
2019-02-16T09:00:30.337Z,7.50
2019-02-16T09:03:19.472Z,7.60
2019-02-16T09:06:10.714Z,7.60
2019-02-16T09:09:06.507Z,7.60
2019-02-16T09:11:45.177Z,7.60
2019-02-16T09:14:30.525Z,7.60
2019-02-16T09:17:18.944Z,7.70
2019-02-16T09:20:42.526Z,7.80
2019-02-16T09:23:29.482Z,7.80
2019-02-16T09:26:23.386Z,7.90
2019-02-16T09:29:12.045Z,7.90
2019-02-16T09:32:15.330Z,8.00
2019-02-16T09:35:05.571Z,8.10
2019-02-16T09:37:43.213Z,8.20
2019-02-16T09:40:29.921Z,8.20
2019-02-16T09:43:09.661Z,8.30
2019-02-16T09:45:56.286Z,8.40
2019-02-16T09:48:54.441Z,8.50
2019-02-16T09:51:30.454Z,8.50
2019-02-16T09:54:21.568Z,8.50
2019-02-16T09:57:08.522Z,8.50
2019-02-16T09:59:55.155Z,8.70
2019-02-16T10:02:48.991Z,8.70
2019-02-16T10:05:40.611Z,8.80
2019-02-16T10:08:21.939Z,8.80
2019-02-16T10:11:07.603Z,8.90
2019-02-16T10:13:59.047Z,9.00
2019-02-16T10:16:41.979Z,9.00
2019-02-16T10:19:39.542Z,9.00
2019-02-16T10:22:33.417Z,9.10
2019-02-16T10:25:12.571Z,9.10
2019-02-16T10:28:01.006Z,9.20
2019-02-16T10:31:01.542Z,9.30
2019-02-16T10:33:48.662Z,9.30
2019-02-16T10:36:24.843Z,9.30
2019-02-16T10:39:02.087Z,9.40
2019-02-16T10:41:48.999Z,9.30
2019-02-16T10:44:42.878Z,9.30
2019-02-16T10:47:21.023Z,9.40
2019-02-16T10:50:12.093Z,9.40
2019-02-16T10:52:58.610Z,9.40
2019-02-16T10:55:41.370Z,9.40
2019-02-16T10:58:29.612Z,9.40
2019-02-16T11:01:16.383Z,9.50
2019-02-16T11:04:19.577Z,9.60
2019-02-16T11:06:56.505Z,9.60
2019-02-16T11:09:44.672Z,9.70
2019-02-16T11:12:31.796Z,9.70
2019-02-16T11:15:23.174Z,9.70
2019-02-16T11:18:20.974Z,9.80
2019-02-16T11:21:15.167Z,9.90
2019-02-16T11:24:19.332Z,10.00
2019-02-16T11:27:01.211Z,10.10
2019-02-16T11:29:44.005Z,10.00
2019-02-16T11:32:38.230Z,10.10
2019-02-16T11:35:32.830Z,10.10
2019-02-16T11:38:23.299Z,10.20
2019-02-16T11:41:08.921Z,10.30
2019-02-16T11:43:48.944Z,10.30
2019-02-16T11:46:52.153Z,10.40
2019-02-16T11:49:39.312Z,10.40
2019-02-16T11:52:29.479Z,10.50
2019-02-16T11:55:30.833Z,10.50
2019-02-16T11:58:24.941Z,10.60
2019-02-16T12:01:13.060Z,10.70
2019-02-16T12:03:56.651Z,10.70
2019-02-16T12:06:39.120Z,10.80
2019-02-16T12:09:18.248Z,10.90
2019-02-16T12:11:57.420Z,10.90
2019-02-16T12:14:48.479Z,10.80
2019-02-16T12:17:44.041Z,10.80
2019-02-16T12:20:33.377Z,10.90
2019-02-16T12:23:20.477Z,11.00
2019-02-16T12:26:00.518Z,11.10
2019-02-16T12:28:52.039Z,11.10
2019-02-16T12:31:48.097Z,11.20
2019-02-16T12:34:35.008Z,11.20
2019-02-16T12:37:10.741Z,11.20
2019-02-16T12:39:51.782Z,11.30
2019-02-16T12:42:42.948Z,11.40
2019-02-16T12:45:23.323Z,11.40
2019-02-16T12:48:10.486Z,11.50
2019-02-16T12:50:59.432Z,11.50
2019-02-16T12:53:56.178Z,11.50
2019-02-16T12:56:43.108Z,11.60
2019-02-16T12:59:34.757Z,11.70
2019-02-16T13:02:31.781Z,11.70
2019-02-16T13:05:28.798Z,11.70
2019-02-16T13:08:19.689Z,11.70
2019-02-16T13:11:09.814Z,11.70
2019-02-16T13:14:11.071Z,11.70
2019-02-16T13:17:02.512Z,11.70
2019-02-16T13:19:49.395Z,11.70
2019-02-16T13:22:36.394Z,11.80
2019-02-16T13:25:12.143Z,11.80
2019-02-16T13:27:59.090Z,11.80
2019-02-16T13:30:48.092Z,11.70
2019-02-16T13:33:24.382Z,11.70
2019-02-16T13:36:09.106Z,11.70
2019-02-16T13:38:57.417Z,11.80
2019-02-16T13:41:35.902Z,11.80
2019-02-16T13:44:15.592Z,11.90
2019-02-16T13:47:03.417Z,11.90
2019-02-16T13:49:44.082Z,12.00
2019-02-16T13:52:24.794Z,12.00
2019-02-16T13:55:14.419Z,12.10
2019-02-16T13:57:54.123Z,12.10
2019-02-16T14:00:35.151Z,12.20
2019-02-16T14:03:26.171Z,12.30
2019-02-16T14:06:17.403Z,12.30
2019-02-16T14:09:08.950Z,12.30
2019-02-16T14:11:55.578Z,12.30
2019-02-16T14:14:49.748Z,12.30
2019-02-16T14:17:45.116Z,12.30
2019-02-16T14:20:14.289Z,12.30
2019-02-16T14:22:43.544Z,12.40
2019-02-16T14:25:19.257Z,12.40
2019-02-16T14:27:49.438Z,12.40
2019-02-16T14:30:18.542Z,12.30
2019-02-16T14:32:47.813Z,12.40
2019-02-16T14:35:16.910Z,12.40
2019-02-16T14:37:54.042Z,12.40
2019-02-16T14:40:26.813Z,12.40
2019-02-16T14:42:56.046Z,12.40
2019-02-16T14:45:25.152Z,12.40
2019-02-16T14:47:54.753Z,12.40
2019-02-16T14:50:23.808Z,12.50
2019-02-16T14:52:52.866Z,12.50
2019-02-16T14:55:21.809Z,12.50
2019-02-16T14:57:50.907Z,12.50
2019-02-16T15:00:20.472Z,12.50
2019-02-16T15:02:49.738Z,12.50
2019-02-16T15:05:19.014Z,12.50
2019-02-16T15:07:48.226Z,12.50
2019-02-16T15:10:17.497Z,12.50
2019-02-16T15:12:48.128Z,12.50
2019-02-16T15:15:24.702Z,12.50
2019-02-16T15:17:53.905Z,12.50
2019-02-16T15:20:23.126Z,12.50
2019-02-16T15:22:53.044Z,12.50
2019-02-16T15:25:22.157Z,12.50
2019-02-16T15:27:51.619Z,12.60
2019-02-16T15:30:21.173Z,12.50
2019-02-16T15:32:51.359Z,12.50
2019-02-16T15:35:21.520Z,12.50
2019-02-16T15:37:50.730Z,12.50
2019-02-16T15:40:19.854Z,12.50
2019-02-16T15:42:49.054Z,12.50
2019-02-16T15:45:18.437Z,12.50
2019-02-16T15:47:50.570Z,12.50
2019-02-16T15:50:19.646Z,12.50
2019-02-16T15:52:49.441Z,12.50
2019-02-16T15:55:18.597Z,12.50
2019-02-16T15:57:47.766Z,12.50
2019-02-16T16:00:19.332Z,12.50
2019-02-16T16:02:48.574Z,12.50
2019-02-16T16:05:17.645Z,12.40
2019-02-16T16:07:51.169Z,12.40
2019-02-16T16:10:32.933Z,12.30
2019-02-16T16:13:14.997Z,12.40
2019-02-16T16:16:09.353Z,12.30
2019-02-16T16:19:00.527Z,12.30
2019-02-16T16:21:40.461Z,12.30
2019-02-16T16:24:40.601Z,12.30
2019-02-16T16:27:31.721Z,12.30
2019-02-16T16:30:19.877Z,12.30
2019-02-16T16:33:08.301Z,12.20
2019-02-16T16:35:51.046Z,12.10
2019-02-16T16:38:29.266Z,12.10
2019-02-16T16:41:11.901Z,12.10
2019-02-16T16:43:55.905Z,12.00
2019-02-16T16:46:42.834Z,12.00
2019-02-16T16:49:37.356Z,12.00
2019-02-16T16:52:19.865Z,11.90
2019-02-16T16:55:03.517Z,11.90
2019-02-16T16:57:51.544Z,11.80
2019-02-16T17:00:42.144Z,11.70
2019-02-16T17:03:40.795Z,11.70
2019-02-16T17:06:18.051Z,11.60
2019-02-16T17:09:24.314Z,11.50
2019-02-16T17:12:16.345Z,11.50
2019-02-16T17:15:15.541Z,11.40
2019-02-16T17:18:07.007Z,11.40
2019-02-16T17:20:56.669Z,11.30
2019-02-16T17:23:46.756Z,11.20
2019-02-16T17:26:37.774Z,11.20
2019-02-16T17:29:33.187Z,11.10
2019-02-16T17:32:24.883Z,11.10
2019-02-16T17:35:13.016Z,11.10
2019-02-16T17:38:04.005Z,11.00
2019-02-16T17:40:48.345Z,11.00
2019-02-16T17:43:35.584Z,11.00
2019-02-16T17:46:25.182Z,10.90
2019-02-16T17:49:26.020Z,10.90
2019-02-16T17:52:12.931Z,10.80
2019-02-16T17:55:00.326Z,10.80
2019-02-16T17:57:54.806Z,10.70
2019-02-16T18:00:42.168Z,10.70
2019-02-16T18:03:28.990Z,10.60
2019-02-16T18:06:17.442Z,10.60
2019-02-16T18:09:04.895Z,10.60
2019-02-16T18:11:52.176Z,10.60
2019-02-16T18:14:38.907Z,10.50
2019-02-16T18:17:22.598Z,10.50
2019-02-16T18:20:10.874Z,10.50
2019-02-16T18:22:49.261Z,10.50
2019-02-16T18:25:27.914Z,10.50
2019-02-16T18:28:19.628Z,10.50
2019-02-16T18:31:17.015Z,10.50
2019-02-16T18:34:00.809Z,10.50
2019-02-16T18:36:48.096Z,10.40
2019-02-16T18:39:54.442Z,10.40
2019-02-16T18:42:42.623Z,10.40
2019-02-16T18:45:45.767Z,10.40
2019-02-16T18:48:37.177Z,10.40
2019-02-16T18:51:18.452Z,10.40
2019-02-16T18:54:09.671Z,10.40
2019-02-16T18:57:06.393Z,10.30
2019-02-16T18:59:40.942Z,10.30
2019-02-16T19:02:19.506Z,10.30
2019-02-16T19:05:14.566Z,10.30
2019-02-16T19:08:08.434Z,10.30
2019-02-16T19:11:15.118Z,10.40
2019-02-16T19:13:52.319Z,10.40
2019-02-16T19:16:36.862Z,10.40
2019-02-16T19:19:16.536Z,10.40
2019-02-16T19:21:55.317Z,10.30
2019-02-16T19:24:46.315Z,10.30
2019-02-16T19:27:40.318Z,10.30
2019-02-16T19:30:26.959Z,10.30
2019-02-16T19:33:03.807Z,10.30
2019-02-16T19:35:39.938Z,10.20
2019-02-16T19:38:15.552Z,10.20
2019-02-16T19:41:12.803Z,10.20
2019-02-16T19:43:58.238Z,10.10
2019-02-16T19:46:55.348Z,10.10
2019-02-16T19:49:52.603Z,10.10
2019-02-16T19:52:40.575Z,10.10
2019-02-16T19:55:38.026Z,10.00
2019-02-16T19:58:19.860Z,10.00
2019-02-16T20:00:59.237Z,10.00
2019-02-16T20:03:45.747Z,10.00
2019-02-16T20:06:37.930Z,9.90
2019-02-16T20:09:25.390Z,9.90
2019-02-16T20:12:05.053Z,9.90
2019-02-16T20:15:09.790Z,9.90
2019-02-16T20:17:57.176Z,9.90
2019-02-16T20:20:45.359Z,9.90
2019-02-16T20:23:48.942Z,9.90
2019-02-16T20:26:42.931Z,9.90
2019-02-16T20:29:16.688Z,9.90
2019-02-16T20:31:55.560Z,9.90
2019-02-16T20:34:43.755Z,9.90
2019-02-16T20:37:30.362Z,9.90
2019-02-16T20:40:13.045Z,9.80
2019-02-16T20:43:10.185Z,9.80
2019-02-16T20:45:57.840Z,9.80
2019-02-16T20:48:48.743Z,9.80
2019-02-16T20:51:42.186Z,9.80
2019-02-16T20:54:30.874Z,9.80
2019-02-16T20:57:06.589Z,9.70
2019-02-16T20:59:50.248Z,9.60
2019-02-16T21:02:29.644Z,9.60
2019-02-16T21:05:18.818Z,9.60
2019-02-16T21:08:10.518Z,9.60
2019-02-16T21:10:48.506Z,9.60
2019-02-16T21:13:42.765Z,9.50
2019-02-16T21:16:31.745Z,9.50
2019-02-16T21:19:14.324Z,9.40
2019-02-16T21:22:11.363Z,9.40
2019-02-16T21:25:03.367Z,9.40
2019-02-16T21:27:57.415Z,9.40
2019-02-16T21:30:37.233Z,9.40
2019-02-16T21:33:15.620Z,9.30
2019-02-16T21:36:07.056Z,9.30
2019-02-16T21:38:47.111Z,9.20
2019-02-16T21:41:35.936Z,9.20
2019-02-16T21:44:19.798Z,9.20
2019-02-16T21:46:59.417Z,9.10
2019-02-16T21:49:39.321Z,9.00
2019-02-16T21:52:38.658Z,9.00
2019-02-16T21:55:27.049Z,9.00
2019-02-16T21:58:30.400Z,9.00
2019-02-16T22:01:21.673Z,9.00
2019-02-16T22:03:59.548Z,9.00
2019-02-16T22:06:46.334Z,8.90
2019-02-16T22:09:29.531Z,8.90
2019-02-16T22:12:16.674Z,8.90
2019-02-16T22:14:45.974Z,8.80
2019-02-16T22:17:15.031Z,8.80
2019-02-16T22:19:44.046Z,8.80
2019-02-16T22:22:13.142Z,8.80
2019-02-16T22:24:42.151Z,8.70
2019-02-16T22:27:11.216Z,8.70
2019-02-16T22:29:40.288Z,8.60
2019-02-16T22:32:09.436Z,8.60
2019-02-16T22:34:38.833Z,8.60
2019-02-16T22:37:07.982Z,8.50
2019-02-16T22:39:37.098Z,8.50
2019-02-16T22:42:06.481Z,8.50
2019-02-16T22:44:35.797Z,8.50
2019-02-16T22:47:05.112Z,8.50
2019-02-16T22:49:34.277Z,8.40
2019-02-16T22:52:03.756Z,8.40
2019-02-16T22:54:33.177Z,8.40
2019-02-16T22:57:02.466Z,8.40
2019-02-16T22:59:32.097Z,8.40
2019-02-16T23:02:02.777Z,8.40
2019-02-16T23:04:32.211Z,8.40
2019-02-16T23:07:01.843Z,8.30
2019-02-16T23:09:33.127Z,8.30
2019-02-16T23:12:04.097Z,8.30
2019-02-16T23:14:33.575Z,8.20
2019-02-16T23:17:02.720Z,8.20
2019-02-16T23:19:32.147Z,8.20
2019-02-16T23:22:02.222Z,8.20
2019-02-16T23:24:32.166Z,8.20
2019-02-16T23:27:02.071Z,8.10
2019-02-16T23:29:31.361Z,8.10
2019-02-16T23:32:00.669Z,8.10
2019-02-16T23:34:30.114Z,8.20
2019-02-16T23:36:59.378Z,8.20
2019-02-16T23:39:28.657Z,8.20
2019-02-16T23:41:58.102Z,8.10
2019-02-16T23:44:27.299Z,8.10
2019-02-16T23:46:57.397Z,8.10
2019-02-16T23:49:28.601Z,8.20
2019-02-16T23:51:58.795Z,8.20
2019-02-16T23:54:27.866Z,8.20
2019-02-16T23:56:57.394Z,8.20
2019-02-16T23:59:26.706Z,8.20
